Time;durP1;ratioP1;P1;durP2;ratioP2;P2;SDS_P1;SDS_P2;PMS_P1;PMS_P2;Temp;Humidity;BMP_temperature;BMP_pressure;BME280_temperature;BME280_humidity;BME280_pressure;Samples;Min_cycle;Max_cycle;Signal;HPM_P1;HPM_P2
2023/06/02 00:00:00;;;;;;;13.43;3.65;;;;;;;-144.47;77.51;52665.44;5006084;28;20025;-66
2023/06/02 00:02:29;;;;;;;9.10;3.47;;;;;;;-144.47;77.97;52645.56;5004887;28;20030;-68
2023/06/02 00:04:59;;;;;;;24.15;3.92;;;;;;;-144.47;78.44;52655.50;5006847;28;20049;-66
2023/06/02 00:07:27;;;;;;;12.93;4.45;;;;;;;-144.47;78.49;52669.41;5008555;28;20049;-68
2023/06/02 00:09:52;;;;;;;10.53;3.23;;;;;;;-144.47;78.64;52691.25;5008282;28;20144;-62
2023/06/02 00:12:18;;;;;;;13.25;4.13;;;;;;;-144.47;78.87;52659.47;5008896;28;20444;-67
2023/06/02 00:14:43;;;;;;;17.08;3.47;;;;;;;-144.47;78.91;52685.28;5008204;28;20432;-68
2023/06/02 00:17:10;;;;;;;14.07;3.38;;;;;;;-144.47;79.29;52653.50;5008017;28;20041;-63
2023/06/02 00:19:37;;;;;;;11.60;3.78;;;;;;;-144.47;79.58;52663.44;5007304;28;20049;-66
2023/06/02 00:22:05;;;;;;;8.57;3.40;;;;;;;-144.47;79.61;52673.38;5008242;28;20029;-66
2023/06/02 00:24:31;;;;;;;;;;;;;;;-144.47;79.65;52659.47;5008016;28;20097;-66
2023/06/02 00:26:56;;;;;;;11.93;3.72;;;;;;;-144.47;80.13;52677.34;5008648;28;20007;-69
2023/06/02 00:29:22;;;;;;;11.80;3.92;;;;;;;-144.47;79.81;52651.53;5008291;28;20077;-66
2023/06/02 00:31:48;;;;;;;11.43;3.67;;;;;;;-144.47;80.19;52657.47;5007940;28;20496;-68
2023/06/02 00:34:13;;;;;;;10.05;3.38;;;;;;;-144.47;80.09;52655.50;5005699;28;20038;-68
2023/06/02 00:36:38;;;;;;;9.25;3.17;;;;;;;-144.47;80.41;52673.38;5008078;28;20479;-65
2023/06/02 00:39:04;;;;;;;11.40;3.13;;;;;;;-144.47;80.30;52679.31;5007851;28;20033;-67
2023/06/02 00:41:29;;;;;;;14.73;3.28;;;;;;;-144.47;80.31;52673.38;5008148;28;20022;-65
2023/06/02 00:43:55;;;;;;;10.25;3.25;;;;;;;-144.47;80.65;52645.56;5007303;28;20045;-67
2023/06/02 00:46:20;;;;;;;14.77;3.33;;;;;;;-144.47;81.08;52689.25;5007729;28;20104;-66
2023/06/02 00:48:48;;;;;;;14.02;3.42;;;;;;;-144.47;81.56;52677.34;5007789;28;20022;-67
2023/06/02 00:51:14;;;;;;;13.32;3.45;;;;;;;-144.47;81.54;52685.28;5007125;28;20028;-66
2023/06/02 00:53:40;;;;;;;7.20;3.00;;;;;;;-144.47;81.79;52657.47;5006947;28;20026;-64
2023/06/02 00:56:06;;;;;;;12.20;3.10;;;;;;;-144.47;81.79;52669.41;5008185;28;20392;-67
2023/06/02 00:58:37;;;;;;;11.18;3.35;;;;;;;-144.47;82.10;52653.50;5006166;28;20029;-65
2023/06/02 01:01:02;;;;;;;17.95;3.35;;;;;;;-144.47;82.26;52689.25;5007230;28;20022;-63
2023/06/02 01:03:28;;;;;;;14.85;3.38;;;;;;;-144.47;82.59;52663.44;5005186;28;20080;-64
2023/06/02 01:05:55;;;;;;;10.18;3.47;;;;;;;-144.47;82.37;52685.28;4994817;28;20109;-66
2023/06/02 01:08:21;;;;;;;10.75;3.95;;;;;;;-144.47;82.76;52687.28;5007491;28;20539;-66
2023/06/02 01:10:47;;;;;;;10.60;3.30;;;;;;;-144.47;82.73;52663.44;5007220;28;20045;-67
2023/06/02 01:13:12;;;;;;;11.65;3.08;;;;;;;-144.47;82.87;52689.25;5007444;28;20033;-66
2023/06/02 01:15:38;;;;;;;9.05;3.15;;;;;;;-144.47;82.78;52687.28;5000507;28;20549;-66
2023/06/02 01:18:12;;;;;;;13.82;3.55;;;;;;;-144.47;82.84;52683.31;5007233;28;20022;-67
2023/06/02 01:20:52;;;;;;;15.65;3.53;;;;;;;-144.47;83.02;52681.31;5006622;28;20030;-65
2023/06/02 01:23:28;;;;;;;20.98;3.78;;;;;;;-144.47;83.06;52663.44;5005776;28;20041;-67
2023/06/02 01:25:54;;;;;;;12.63;3.53;;;;;;;-144.47;82.80;52653.50;5007272;28;20026;-65
2023/06/02 01:28:20;;;;;;;11.98;3.50;;;;;;;-144.47;82.40;52677.34;5007600;28;20041;-66
2023/06/02 01:30:47;;;;;;;12.43;3.28;;;;;;;-144.47;82.44;52663.44;5007635;28;20030;-67
2023/06/02 01:33:22;;;;;;;22.30;3.75;;;;;;;-144.47;81.99;52647.56;5006861;28;20049;-65
2023/06/02 01:35:54;;;;;;;10.45;3.55;;;;;;;-144.47;82.15;52671.38;5004611;28;20066;-65
2023/06/02 01:38:21;;;;;;;11.70;3.33;;;;;;;-144.47;81.92;52641.59;5008085;28;20062;-67
2023/06/02 01:40:47;;;;;;;9.20;3.30;;;;;;;-144.47;81.91;52671.38;5007314;28;20061;-66
2023/06/02 01:43:13;;;;;;;15.80;3.80;;;;;;;-144.47;81.96;52687.28;5007559;28;20037;-67
2023/06/02 01:45:41;;;;;;;8.30;3.17;;;;;;;-144.47;82.12;52661.44;5007007;28;20036;-66
2023/06/02 01:48:07;;;;;;;11.38;3.33;;;;;;;-144.47;82.27;52669.41;5007172;28;20100;-65
2023/06/02 01:50:35;;;;;;;17.83;3.75;;;;;;;-144.47;81.90;52681.31;5006332;28;20053;-66
2023/06/02 01:53:00;;;;;;;14.32;3.50;;;;;;;-144.47;81.48;52645.56;5007167;28;20038;-66
2023/06/02 01:55:26;;;;;;;12.88;3.33;;;;;;;-144.47;81.57;52673.38;5004796;28;20080;-66
2023/06/02 01:57:52;;;;;;;13.38;3.65;;;;;;;-144.47;81.81;52675.34;5002174;28;20521;-68
2023/06/02 02:00:18;;;;;;;10.65;3.40;;;;;;;-144.47;81.65;52669.41;5007101;28;20021;-67
2023/06/02 02:02:44;;;;;;;16.38;3.72;;;;;;;-144.47;81.96;52671.38;5006813;28;20030;-66
2023/06/02 02:05:10;;;;;;;12.95;2.65;;;;;;;-144.47;81.75;52651.53;5004587;28;20068;-67
2023/06/02 02:07:35;;;;;;;14.60;3.88;;;;;;;-144.47;81.67;52653.50;5007264;28;20119;-63
2023/06/02 02:10:02;;;;;;;9.63;3.17;;;;;;;-144.47;81.47;52653.50;5006982;28;20133;-68
2023/06/02 02:12:28;;;;;;;14.15;3.33;;;;;;;-144.47;80.98;52707.13;5007637;28;20026;-64
2023/06/02 02:14:56;;;;;;;13.13;3.30;;;;;;;-144.47;81.28;52665.44;5006873;28;20029;-67
2023/06/02 02:17:24;;;;;;;16.67;2.85;;;;;;;-144.47;81.26;52659.47;5006697;28;20466;-68
2023/06/02 02:19:50;;;;;;;13.00;3.00;;;;;;;-144.47;81.25;52661.44;5006712;28;20131;-68
2023/06/02 02:22:16;;;;;;;15.02;3.28;;;;;;;-144.47;81.15;52671.38;5006788;28;20551;-63
2023/06/02 02:24:41;;;;;;;13.82;2.95;;;;;;;-144.47;80.88;52677.34;5008467;28;20140;-66
2023/06/02 02:27:08;;;;;;;10.00;2.58;;;;;;;-144.47;80.80;52669.41;5010880;28;20036;-64
2023/06/02 02:29:36;;;;;;;15.85;3.85;;;;;;;-144.47;80.88;52689.25;5010897;28;20412;-67
2023/06/02 02:32:02;;;;;;;15.73;3.38;;;;;;;-144.47;80.98;52673.38;5009985;28;20635;-66
2023/06/02 02:34:28;;;;;;;12.70;3.15;;;;;;;-144.47;81.90;52679.31;5009470;28;20156;-66
2023/06/02 02:37:01;;;;;;;14.07;3.78;;;;;;;-144.47;81.23;52659.47;5008296;28;20076;-67
2023/06/02 02:39:29;;;;;;;22.25;3.50;;;;;;;-144.47;80.61;52665.44;5009872;28;20030;-64
2023/06/02 02:41:55;;;;;;;14.93;3.38;;;;;;;-144.47;80.83;52681.31;5010569;28;20033;-67
2023/06/02 02:44:21;;;;;;;14.15;3.15;;;;;;;-144.47;80.06;52689.25;5010102;28;20022;-66
2023/06/02 02:46:46;;;;;;;20.30;2.60;;;;;;;-144.47;79.54;52663.44;5008394;28;20488;-68
2023/06/02 02:49:12;;;;;;;16.90;3.60;;;;;;;-144.47;79.60;52663.44;5009813;28;20053;-68
2023/06/02 02:51:37;;;;;;;14.38;2.72;;;;;;;-144.47;79.79;52661.44;5009837;28;20519;-65
2023/06/02 02:54:03;;;;;;;13.13;3.25;;;;;;;-144.47;79.49;52681.31;5009094;28;20030;-67
2023/06/02 02:56:28;;;;;;;9.88;2.90;;;;;;;-144.47;78.94;52669.41;5010293;28;20550;-66
2023/06/02 02:58:56;;;;;;;10.45;2.80;;;;;;;-144.47;78.51;52669.41;5009921;28;20018;-67
2023/06/02 03:01:22;;;;;;;10.27;3.08;;;;;;;-144.47;78.40;52669.41;5009790;28;20489;-66
2023/06/02 03:03:49;;;;;;;24.13;2.90;;;;;;;-144.47;78.00;52699.19;5007847;28;20041;-65
2023/06/02 03:06:18;;;;;;;21.48;3.63;;;;;;;-144.47;77.84;52695.22;5009626;28;20037;-67
2023/06/02 03:08:44;;;;;;;10.57;2.40;;;;;;;-144.47;77.60;52679.31;5009908;28;20034;-66
2023/06/02 03:11:10;;;;;;;13.43;2.72;;;;;;;-144.47;77.63;52673.38;5008554;28;20040;-67
2023/06/02 03:13:36;;;;;;;11.88;2.85;;;;;;;-144.47;77.03;52673.38;5008970;28;20073;-66
2023/06/02 03:16:02;;;;;;;16.05;3.10;;;;;;;-144.47;77.01;52693.22;5003228;28;20036;-66
2023/06/02 03:18:28;;;;;;;20.88;4.15;;;;;;;-144.47;76.60;52661.44;5008732;28;20076;-63
2023/06/02 03:20:54;;;;;;;26.83;3.03;;;;;;;-144.47;76.16;52679.31;5008777;28;20026;-65
2023/06/02 03:23:20;;;;;;;16.33;4.05;;;;;;;-144.47;76.11;52665.44;5009232;28;20033;-67
2023/06/02 03:25:46;;;;;;;10.10;2.63;;;;;;;-144.47;75.23;52669.41;5008568;28;20425;-67
2023/06/02 03:28:12;;;;;;;16.20;3.20;;;;;;;-144.47;75.96;52699.19;5008374;28;20136;-68
2023/06/02 03:30:37;;;;;;;11.82;2.50;;;;;;;-144.47;75.37;52687.28;5009539;28;20520;-64
2023/06/02 03:33:03;;;;;;;19.38;3.15;;;;;;;-144.47;74.78;52657.47;5008768;28;20115;-66
2023/06/02 03:35:28;;;;;;;11.90;2.88;;;;;;;-144.47;75.26;52663.44;5007620;28;20058;-67
2023/06/02 03:37:53;;;;;;;20.38;3.50;;;;;;;-144.47;75.11;52677.34;5009196;28;20034;-68
2023/06/02 03:40:19;;;;;;;17.05;2.90;;;;;;;-144.47;74.23;52689.25;5009301;28;20172;-64
2023/06/02 03:42:44;;;;;;;10.30;2.95;;;;;;;-144.47;74.37;52667.41;5009061;28;20103;-65
2023/06/02 03:45:10;;;;;;;12.15;2.75;;;;;;;-144.47;74.37;52681.31;5008291;28;20044;-65
2023/06/02 03:47:36;;;;;;;25.50;3.70;;;;;;;-144.47;73.64;52675.34;5008058;28;20049;-63
2023/06/02 03:50:01;;;;;;;17.67;3.50;;;;;;;-144.47;73.29;52681.31;5006480;28;20057;-66
2023/06/02 03:52:30;;;;;;;11.38;2.28;;;;;;;-144.47;73.26;52629.69;5008055;28;20029;-67
2023/06/02 03:54:56;;;;;;;17.58;2.78;;;;;;;-144.47;73.19;52693.22;5007707;28;20454;-67
2023/06/02 03:57:21;;;;;;;12.07;2.58;;;;;;;-144.47;72.87;52681.31;5004024;28;20831;-69
2023/06/02 03:59:47;;;;;;;18.10;3.92;;;;;;;-144.47;72.84;52671.38;5007861;28;20124;-66
2023/06/02 04:02:12;;;;;;;14.20;2.30;;;;;;;-144.47;73.27;52681.31;5010937;28;20037;-66
2023/06/02 04:04:37;;;;;;;19.77;3.90;;;;;;;-144.47;73.17;52693.22;5007060;28;20063;-66
2023/06/02 04:07:03;;;;;;;16.98;3.28;;;;;;;-144.47;72.95;52667.41;5008494;28;20538;-66
2023/06/02 04:09:29;;;;;;;23.20;3.33;;;;;;;-144.47;72.92;52655.50;5008533;28;20035;-64
2023/06/02 04:11:54;;;;;;;11.18;2.75;;;;;;;-144.47;72.97;52653.50;5009120;28;20181;-67
2023/06/02 04:14:20;;;;;;;13.18;2.80;;;;;;;-144.47;73.38;52663.44;5006742;28;20036;-67
2023/06/02 04:16:46;;;;;;;12.20;2.80;;;;;;;-144.47;73.06;52659.47;5006539;28;20033;-65
2023/06/02 04:19:11;;;;;;;17.38;2.97;;;;;;;-144.47;72.92;52661.44;5008217;28;20034;-67
2023/06/02 04:21:37;;;;;;;18.40;3.88;;;;;;;-144.47;72.95;52679.31;5018472;23;20666;-71
2023/06/02 04:24:02;;;;;;;19.60;2.45;;;;;;;-144.47;72.00;52687.28;5005874;28;20056;-70
2023/06/02 04:26:27;;;;;;;19.88;3.88;;;;;;;-144.47;72.00;52663.44;5010303;28;20022;-71
2023/06/02 04:28:53;;;;;;;12.35;3.25;;;;;;;-144.47;72.19;52679.31;5006205;28;20037;-71
2023/06/02 04:31:26;;;;;;;17.33;3.40;;;;;;;-144.47;71.82;52693.22;5007166;28;20033;-73
2023/06/02 04:33:55;;;;;;;19.45;2.67;;;;;;;-144.47;72.03;52655.50;4994481;28;20066;-72
2023/06/02 04:36:21;;;;;;;15.15;3.28;;;;;;;-144.47;72.11;52695.22;5006913;28;20022;-69
2023/06/02 04:38:46;;;;;;;12.10;2.60;;;;;;;-144.47;72.50;52659.47;5009103;28;20041;-69
2023/06/02 04:41:12;;;;;;;29.63;4.20;;;;;;;-144.47;72.56;52681.31;5009694;28;20147;-72
2023/06/02 04:43:38;;;;;;;20.13;3.53;;;;;;;-144.47;72.02;52689.25;5009689;28;20507;-71
2023/06/02 04:46:06;;;;;;;14.80;2.92;;;;;;;-144.47;71.24;52645.56;5007264;28;20680;-72
2023/06/02 04:48:31;;;;;;;13.82;3.15;;;;;;;-144.47;70.68;52653.50;5004783;28;20100;-72
2023/06/02 04:50:57;;;;;;;11.65;2.90;;;;;;;-144.47;69.95;52635.63;5008052;28;20188;-69
2023/06/02 04:53:22;;;;;;;16.08;3.60;;;;;;;-144.47;69.34;52645.56;5005388;28;20101;-71
2023/06/02 04:55:47;;;;;;;19.13;4.38;;;;;;;-144.47;68.94;52645.56;5006543;28;20081;-73
2023/06/02 04:58:13;;;;;;;15.38;3.33;;;;;;;-144.47;69.74;52677.34;5003810;28;20567;-70
2023/06/02 05:00:38;;;;;;;18.10;2.90;;;;;;;-144.47;69.79;52643.56;5009087;28;20085;-70
2023/06/02 05:03:04;;;;;;;14.95;2.78;;;;;;;-144.47;69.93;52687.28;5009546;28;20131;-69
2023/06/02 05:05:29;;;;;;;16.05;3.00;;;;;;;-144.47;70.19;52655.50;5005564;28;20033;-69
2023/06/02 05:07:55;;;;;;;17.15;2.97;;;;;;;-144.47;70.24;52663.44;5010192;28;20083;-72
2023/06/02 05:10:20;;;;;;;17.55;3.10;;;;;;;-144.47;69.45;52655.50;5008232;28;20029;-69
2023/06/02 05:12:47;;;;;;;21.92;4.22;;;;;;;-144.47;69.49;52693.22;5006148;28;20117;-68
2023/06/02 05:15:13;;;;;;;26.98;3.10;;;;;;;-144.47;69.47;52653.50;5006914;28;20021;-70
2023/06/02 05:17:38;;;;;;;14.90;3.33;;;;;;;-144.47;69.32;52677.34;5009579;28;20026;-70
2023/06/02 05:20:05;;;;;;;23.52;3.45;;;;;;;-144.47;69.60;52673.38;5008400;28;20107;-69
2023/06/02 05:22:30;;;;;;;26.65;3.95;;;;;;;-144.47;69.50;52667.41;5009654;28;20018;-72
2023/06/02 05:24:56;;;;;;;24.77;4.53;;;;;;;-144.47;69.32;52667.41;5009081;28;20018;-69
2023/06/02 05:27:21;;;;;;;11.80;2.80;;;;;;;-144.47;68.40;52663.44;5009477;28;20112;-72
2023/06/02 05:29:48;;;;;;;10.23;2.55;;;;;;;-144.47;68.20;52665.44;5009093;28;20084;-70
2023/06/02 05:32:13;;;;;;;20.65;3.40;;;;;;;-144.47;67.93;52655.50;5006312;28;20112;-69
2023/06/02 05:34:43;;;;;;;24.48;3.42;;;;;;;-144.47;68.47;52671.38;5006643;28;20108;-71
2023/06/02 05:37:09;;;;;;;22.92;3.22;;;;;;;-144.47;68.08;52645.56;5007977;28;20017;-72
2023/06/02 05:39:34;;;;;;;12.65;3.00;;;;;;;-144.47;67.88;52657.47;5007612;28;20037;-70
2023/06/02 05:42:00;;;;;;;14.65;3.13;;;;;;;-144.47;68.64;52659.47;5002826;28;20083;-65
2023/06/02 05:44:25;;;;;;;16.33;2.83;;;;;;;-144.47;68.75;52677.34;5008233;28;20053;-69
2023/06/02 05:46:50;;;;;;;12.80;3.13;;;;;;;-144.47;68.95;52655.50;5008931;28;20030;-69
2023/06/02 05:49:16;;;;;;;35.90;5.55;;;;;;;-144.47;69.14;52669.41;5008465;28;20041;-68
2023/06/02 05:51:41;;;;;;;19.30;3.60;;;;;;;-144.47;68.78;52677.34;5009354;28;20522;-68
2023/06/02 05:54:08;;;;;;;20.35;3.13;;;;;;;-144.47;69.17;52667.41;5007785;28;20025;-69
2023/06/02 05:56:34;;;;;;;22.88;3.85;;;;;;;-144.47;69.09;52637.63;5007718;28;20022;-69
2023/06/02 05:59:00;;;;;;;28.27;4.63;;;;;;;-144.47;69.10;52675.34;5007740;28;20398;-68
2023/06/02 06:01:25;;;;;;;29.13;3.22;;;;;;;-144.47;68.64;52657.47;5012809;28;20049;-72
2023/06/02 06:03:50;;;;;;;14.93;3.70;;;;;;;-144.47;67.92;52661.44;5007683;28;20081;-71
2023/06/02 06:06:16;;;;;;;14.13;2.97;;;;;;;-144.47;66.94;52671.38;5004967;28;20022;-70
2023/06/02 06:08:41;;;;;;;22.80;3.67;;;;;;;-144.47;66.24;52665.44;5011271;28;20390;-69
2023/06/02 06:11:06;;;;;;;11.50;3.50;;;;;;;-144.47;67.01;52639.59;5012899;28;20038;-70
2023/06/02 06:13:32;;;;;;;24.92;4.35;;;;;;;-144.47;67.01;52673.38;5012012;28;20034;-70
2023/06/02 06:15:57;;;;;;;21.90;4.15;;;;;;;-144.47;67.21;52659.47;5006331;28;20439;-70
2023/06/02 06:18:22;;;;;;;26.95;4.72;;;;;;;-144.47;66.87;52637.63;5012142;28;20021;-68
2023/06/02 06:20:48;;;;;;;17.80;3.10;;;;;;;-144.47;66.30;52653.50;5002174;28;20028;-69
2023/06/02 06:23:14;;;;;;;15.40;3.88;;;;;;;-144.47;66.09;52639.59;5012126;28;20030;-70
2023/06/02 06:25:39;;;;;;;19.58;3.65;;;;;;;-144.47;65.76;52641.59;5011472;28;20034;-70
2023/06/02 06:28:04;;;;;;;23.08;3.72;;;;;;;-144.47;65.79;52627.69;5013205;28;20061;-69
2023/06/02 06:30:30;;;;;;;15.45;3.08;;;;;;;-144.47;67.01;52647.56;5011703;28;20026;-71
2023/06/02 06:32:55;;;;;;;29.52;2.80;;;;;;;-144.47;66.81;52663.44;5012706;28;20026;-72
2023/06/02 06:35:21;;;;;;;17.95;3.60;;;;;;;-144.47;66.82;52647.56;5010679;28;20480;-70
2023/06/02 06:37:46;;;;;;;27.52;3.92;;;;;;;-144.47;67.25;52657.47;5011941;28;20088;-69
2023/06/02 06:40:11;;;;;;;22.20;3.83;;;;;;;-144.47;67.24;52653.50;5011709;28;20060;-69
2023/06/02 06:42:37;;;;;;;18.58;3.25;;;;;;;-144.47;66.26;52631.66;5011986;28;20030;-69
2023/06/02 06:45:03;;;;;;;17.90;2.83;;;;;;;-144.47;66.19;52641.59;5010877;28;20034;-71
2023/06/02 06:47:28;;;;;;;15.45;3.13;;;;;;;-144.47;65.74;52609.81;5009575;28;20025;-71
2023/06/02 06:49:54;;;;;;;15.55;2.97;;;;;;;-144.47;64.80;52627.69;5010786;28;20026;-71
2023/06/02 06:52:20;;;;;;;20.88;2.88;;;;;;;-144.47;64.73;52643.56;5011503;28;20577;-71
2023/06/02 06:54:45;;;;;;;28.27;3.95;;;;;;;-144.47;64.55;52657.47;5009214;28;20110;-70
2023/06/02 06:57:10;;;;;;;14.57;3.60;;;;;;;-144.47;64.76;52633.66;5009743;28;20025;-70
2023/06/02 06:59:37;;;;;;;25.38;3.97;;;;;;;-144.47;64.12;52637.63;5009105;28;20034;-72
2023/06/02 07:02:02;;;;;;;20.00;4.00;;;;;;;-144.47;63.34;52655.50;5011700;28;20025;-68
2023/06/02 07:04:28;;;;;;;25.70;3.80;;;;;;;-144.47;64.02;52635.63;5003543;28;20088;-71
2023/06/02 07:06:54;;;;;;;11.13;3.03;;;;;;;-144.47;63.46;52639.59;5012812;28;20026;-70
2023/06/02 07:09:20;;;;;;;15.98;3.20;;;;;;;-144.47;62.44;52639.59;5016603;28;20037;-70
2023/06/02 07:11:45;;;;;;;19.52;3.50;;;;;;;-144.47;62.31;52609.81;5011877;28;20026;-70
2023/06/02 07:14:11;;;;;;;16.10;3.60;;;;;;;-144.47;62.93;52645.56;5000826;28;20041;-70
2023/06/02 07:16:36;;;;;;;20.33;3.15;;;;;;;-144.47;62.98;52659.47;5011079;28;20025;-71
2023/06/02 07:19:02;;;;;;;17.70;3.50;;;;;;;-144.47;62.42;52625.72;5010068;28;20038;-69
2023/06/02 07:21:27;;;;;;;19.80;3.63;;;;;;;-144.47;61.99;52631.66;5011124;28;20056;-69
2023/06/02 07:23:53;;;;;;;16.85;4.40;;;;;;;-144.47;61.07;52639.59;5008156;28;20120;-70
2023/06/02 07:26:18;;;;;;;13.15;2.90;;;;;;;-144.47;61.45;52631.66;5011663;28;20479;-69
2023/06/02 07:28:43;;;;;;;14.93;3.47;;;;;;;-144.47;61.30;52609.81;5011284;28;20024;-70
2023/06/02 07:31:09;;;;;;;22.92;4.18;;;;;;;-144.47;61.04;52621.72;5011778;28;20160;-71
2023/06/02 07:33:34;;;;;;;13.95;3.03;;;;;;;-144.47;60.47;52619.75;5010426;28;20103;-70
2023/06/02 07:36:00;;;;;;;15.23;3.30;;;;;;;-144.47;60.80;52601.88;5010245;28;20075;-70
2023/06/02 07:38:25;;;;;;;20.67;3.95;;;;;;;-144.47;61.23;52633.66;5010102;28;20053;-71
2023/06/02 07:40:51;;;;;;;19.98;4.45;;;;;;;-144.47;61.12;52637.63;5011338;28;20065;-69
2023/06/02 07:43:16;;;;;;;18.40;3.40;;;;;;;-144.47;61.63;52645.56;5010641;28;20056;-71
2023/06/02 07:45:42;;;;;;;19.17;3.60;;;;;;;-144.47;61.19;52605.84;5010531;28;20083;-71
2023/06/02 07:48:07;;;;;;;38.08;4.30;;;;;;;-144.47;60.93;52609.81;5010041;28;20372;-70
2023/06/02 07:50:32;;;;;;;26.85;3.42;;;;;;;-144.47;61.31;52601.88;5010074;28;20061;-71
2023/06/02 07:52:58;;;;;;;18.85;3.75;;;;;;;-144.47;61.48;52645.56;5011157;28;20376;-70
2023/06/02 07:55:24;;;;;;;20.70;4.35;;;;;;;-144.47;61.34;52619.75;5005560;28;20658;-71
2023/06/02 07:57:50;;;;;;;25.50;3.47;;;;;;;-144.47;60.63;52597.91;5006459;28;20380;-71
2023/06/02 08:00:18;;;;;;;26.52;5.13;;;;;;;-144.47;61.46;52621.72;5010849;28;20017;-70
2023/06/02 08:02:48;;;;;;;19.25;4.22;;;;;;;-144.47;61.16;52661.44;5010566;28;20033;-70
2023/06/02 08:05:15;;;;;;;24.48;3.58;;;;;;;-144.47;60.01;52599.88;5008637;28;20136;-70
2023/06/02 08:07:41;;;;;;;21.75;3.80;;;;;;;-144.47;60.17;52631.66;5010521;28;20026;-70
2023/06/02 08:10:07;;;;;;;24.23;3.90;;;;;;;-144.47;59.77;52617.75;5008548;28;20031;-70
2023/06/02 08:12:33;;;;;;;23.60;3.20;;;;;;;-144.47;59.49;52607.84;5010640;28;20104;-70
2023/06/02 08:14:59;;;;;;;17.45;3.42;;;;;;;-144.47;59.24;52629.69;5010041;28;20479;-71
2023/06/02 08:17:29;;;;;;;18.70;3.60;;;;;;;-144.47;59.45;52603.84;5011241;28;20026;-72
2023/06/02 08:20:03;;;;;;;21.88;3.72;;;;;;;-144.47;60.50;52619.75;5007835;28;20075;-70
2023/06/02 08:22:30;;;;;;;27.10;3.63;;;;;;;-144.47;60.09;52627.69;5010214;28;20029;-71
2023/06/02 08:24:56;;;;;;;15.52;3.15;;;;;;;-144.47;60.55;52623.72;5008980;28;20427;-72
2023/06/02 08:27:23;;;;;;;25.52;4.50;;;;;;;-144.47;60.17;52629.69;5008973;28;20033;-72
2023/06/02 08:29:53;;;;;;;18.83;3.63;;;;;;;-144.47;59.65;52611.81;5010711;28;20026;-68
2023/06/02 08:32:22;;;;;;;20.92;3.63;;;;;;;-144.47;58.60;52603.84;5010166;28;20413;-70
2023/06/02 08:34:50;;;;;;;;;;;;;;;-144.47;59.29;52605.84;5009093;28;20104;-68
2023/06/02 08:37:16;;;;;;;18.42;4.10;;;;;;;-144.47;59.87;52595.91;5010203;28;19910;-68
2023/06/02 08:39:47;;;;;;;23.70;4.13;;;;;;;-144.47;60.39;52625.72;5010059;28;20022;-70
2023/06/02 08:42:13;;;;;;;25.88;4.05;;;;;;;-144.47;60.21;52619.75;5010403;28;20038;-71
2023/06/02 08:44:41;;;;;;;25.67;3.53;;;;;;;-144.47;60.32;52629.69;5009591;28;20029;-71
2023/06/02 08:47:11;;;;;;;22.10;4.25;;;;;;;-144.47;59.86;52621.72;5010874;28;20491;-70
2023/06/02 08:49:38;;;;;;;20.58;4.25;;;;;;;-144.47;59.46;52621.72;5009739;28;20137;-71
2023/06/02 08:52:08;;;;;;;17.77;3.78;;;;;;;-144.47;58.85;52605.84;5010337;28;20026;-72
2023/06/02 08:54:35;;;;;;;21.27;3.78;;;;;;;-144.47;58.95;52617.75;5009346;28;20045;-71
2023/06/02 08:57:04;;;;;;;20.85;4.25;;;;;;;-144.47;59.76;52619.75;5007135;28;20107;-68
2023/06/02 08:59:30;;;;;;;18.40;4.22;;;;;;;-144.47;60.25;52629.69;5006811;28;20025;-68
2023/06/02 09:01:55;;;;;;;22.40;3.60;;;;;;;-144.47;60.21;52641.59;5009880;28;20040;-70
2023/06/02 09:04:21;;;;;;;26.80;3.97;;;;;;;-144.47;60.17;52613.78;5007963;28;20034;-68
2023/06/02 09:06:49;;;;;;;19.63;3.80;;;;;;;-144.47;59.74;52617.75;5009455;28;20025;-70
2023/06/02 09:09:15;;;;;;;25.00;3.67;;;;;;;-144.47;59.70;52629.69;5009126;28;20053;-71
2023/06/02 09:11:57;;;;;;;16.00;4.05;;;;;;;-144.47;59.90;52597.91;5009198;28;20084;-70
2023/06/02 09:14:23;;;;;;;10.70;3.38;;;;;;;-144.47;59.28;52603.84;5009287;28;20036;-70
2023/06/02 09:16:49;;;;;;;27.35;4.78;;;;;;;-144.47;59.03;52617.75;5008684;28;20029;-70
2023/06/02 09:19:14;;;;;;;37.40;4.60;;;;;;;-144.47;58.83;52597.91;5008902;28;20033;-71
2023/06/02 09:21:40;;;;;;;22.33;3.55;;;;;;;-144.47;57.85;52597.91;5010044;28;20036;-69
2023/06/02 09:24:05;;;;;;;20.13;4.05;;;;;;;-144.47;57.37;52601.88;5008388;28;20094;-71
2023/06/02 09:26:31;;;;;;;22.75;4.13;;;;;;;-144.47;57.47;52589.97;5009739;28;20083;-70
2023/06/02 09:29:23;;;;;;;17.20;3.40;;;;;;;-144.47;57.04;52621.72;5009224;28;20022;-70
2023/06/02 09:31:53;;;;;;;15.63;3.53;;;;;;;-144.47;56.84;52603.84;4997068;28;20042;-68
2023/06/02 09:34:20;;;;;;;18.65;3.50;;;;;;;-144.47;56.66;52629.69;5007180;28;20661;-71
2023/06/02 09:36:53;;;;;;;17.40;4.28;;;;;;;-144.47;56.01;52613.78;5009218;28;20022;-70
2023/06/02 09:39:41;;;;;;;23.75;5.13;;;;;;;-144.47;54.90;52599.88;5009074;28;20022;-68
2023/06/02 09:42:08;;;;;;;23.95;3.78;;;;;;;-144.47;54.57;52625.72;5009124;28;20054;-68
2023/06/02 09:44:33;;;;;;;22.40;4.43;;;;;;;-144.47;55.87;52615.78;5008911;28;20411;-71
2023/06/02 09:47:00;;;;;;;24.60;3.53;;;;;;;-144.47;56.27;52601.88;5010444;28;20035;-71
2023/06/02 09:49:25;;;;;;;15.73;3.25;;;;;;;-144.47;56.08;52597.91;5008602;28;20033;-73
2023/06/02 09:51:51;;;;;;;17.73;3.88;;;;;;;-144.47;55.85;52613.78;5009174;28;20022;-66
2023/06/02 09:54:17;;;;;;;11.48;3.10;;;;;;;-144.47;54.66;52631.66;5008011;28;20076;-70
2023/06/02 09:56:43;;;;;;;16.40;3.88;;;;;;;-144.47;54.59;52621.72;5003487;28;20396;-73
2023/06/02 09:59:09;;;;;;;21.65;3.28;;;;;;;-144.47;54.95;52635.63;5005688;28;20468;-71
2023/06/02 10:01:35;;;;;;;24.15;3.97;;;;;;;-144.47;52.45;52617.75;5009411;28;20365;-71
2023/06/02 10:04:03;;;;;;;24.73;4.07;;;;;;;-144.47;54.28;52605.84;5007516;28;20030;-69
2023/06/02 10:06:41;;;;;;;20.20;4.18;;;;;;;-144.47;53.85;52605.84;5009380;28;20060;-71
2023/06/02 10:09:16;;;;;;;15.18;3.53;;;;;;;-144.47;54.45;52580.03;5008128;28;20387;-70
2023/06/02 10:12:06;;;;;;;21.25;4.45;;;;;;;-144.47;55.86;52607.84;5008950;28;20025;-70
2023/06/02 10:15:12;;;;;;;25.83;5.55;;;;;;;-144.47;55.30;52585.97;5008803;28;20028;-70
2023/06/02 10:17:43;;;;;;;22.05;4.97;;;;;;;-144.47;54.61;52633.66;5007997;28;20026;-70
2023/06/02 10:23:21;;;;;;;28.48;3.72;;;;;;;-144.47;52.97;52611.81;5004370;28;20065;-68
2023/06/02 10:25:59;;;;;;;17.52;3.50;;;;;;;-144.47;53.55;52619.75;5005399;28;20097;-67
2023/06/02 10:28:28;;;;;;;25.50;3.60;;;;;;;-144.47;52.26;52605.84;5007266;28;20026;-67
2023/06/02 10:31:11;;;;;;;21.00;4.53;;;;;;;-144.47;51.37;52607.84;5006938;28;20041;-68
2023/06/02 10:33:50;;;;;;;28.08;5.65;;;;;;;-144.47;51.34;52633.66;5006308;28;20268;-68
2023/06/02 10:36:21;;;;;;;18.42;3.45;;;;;;;-144.47;50.42;52584.00;5007182;28;20104;-67
2023/06/02 10:38:46;;;;;;;16.83;2.95;;;;;;;-144.47;50.37;52605.84;5007376;28;20546;-69
2023/06/02 10:41:14;;;;;;;23.13;3.92;;;;;;;-144.47;49.89;52621.72;5006882;28;20034;-63
2023/06/02 10:44:18;;;;;;;18.95;3.67;;;;;;;-144.47;49.07;52589.97;5005154;28;20034;-67
2023/06/02 10:46:43;;;;;;;11.82;2.58;;;;;;;-144.47;48.53;52595.91;5000612;28;20034;-69
2023/06/02 10:49:47;;;;;;;15.30;2.63;;;;;;;-144.47;47.65;52585.97;5010059;28;20400;-68
2023/06/02 10:52:13;;;;;;;21.10;3.63;;;;;;;-144.47;46.96;52619.75;5009596;28;20034;-66
2023/06/02 10:54:38;;;;;;;25.25;4.07;;;;;;;-144.47;46.81;52637.63;5008883;28;20049;-69
2023/06/02 10:57:03;;;;;;;17.15;3.75;;;;;;;-144.47;47.70;52574.06;5005884;28;20026;-68
2023/06/02 10:59:34;;;;;;;23.27;4.22;;;;;;;-144.47;46.92;52597.91;5008091;28;20029;-68
2023/06/02 11:02:00;;;;;;;11.18;2.83;;;;;;;-144.47;46.11;52595.91;5002579;28;20033;-68
2023/06/02 11:04:38;;;;;;;19.73;3.20;;;;;;;-144.47;46.49;52619.75;5008549;28;20083;-65
2023/06/02 11:07:22;;;;;;;14.70;3.72;;;;;;;-144.47;47.88;52639.59;5009781;28;20048;-68
2023/06/02 11:09:50;;;;;;;20.23;3.10;;;;;;;-144.47;48.47;52605.84;5008573;28;20173;-66
2023/06/02 11:12:19;;;;;;;12.52;2.97;;;;;;;-144.47;49.29;52595.91;5010126;28;20029;-68